Rutland, VT

8:12 AM EST on February 24, 2017 (GMT -0500)
Rush Hollow | | Change Station
Active Advisory: Areal Flood Watch Active Notice: Areal Flood Watch

Elev 730 ft 43.34 °N, 73.23 °W | Updated 17 minutes ago

Clear
Clear
41.5 °F
Feels Like 41.5 °F
N
0.0
Wind Variable Wind from NE
Gusts 0.0 mph

Today
High -- | Low -- °F
--% Chance of Precip.
Yesterday
High -- | Low -- °F
Precip. -- in
Pressure 29.98 in
Visibility 10.0 miles
Clouds Clear
Dew Point 41.2 °F
Humidity 99%
Rainfall 0.00 in
Snow Depth Not available.
6:36 AM 5:34 PM
Waning Crescent, 5% visible
METAR KRUT 241256Z AUTO 11003KT 10SM CLR 05/04 A2991 RMK AO2 SLP150 T00500039 $
Pressure 29.98 in
Visibility 10.0 miles
Clouds Clear
Dew Point 41.2 °F
Humidity 99%
Rainfall 0.00 in
Snow Depth Not available.
6:36 AM 5:34 PM
Waning Crescent, 5% visible
METAR KRUT 241256Z AUTO 11003KT 10SM CLR 05/04 A2991 RMK AO2 SLP150 T00500039 $

Get Your Daily Forecast Email!

Thanks for signing up!

Be on the lookout for a verification email in your inbox.

You'll start receiving the daily forecast at 8 AM.

×

10-Day Weather Forecast

Almanac

Astronomy

Feb. 24, 2017 Rise Set
Actual Time
Civil Twilight
Nautical Twilight
Astronomical Twilight
Moon
Length of Visible Light
Length of Day
Tomorrow will be .
, % of the Moon is Illuminated

Today's Extremes

State Highs State Lows

Community

WunderPhotos

Upload Photos

1,962,540 photos uploaded!

WunderBlog® & News

Nearby

Air Quality

  Air Quality AQ Index Pollutant
Not available.

Snow Depth

Station Depth Elevation

Earthquake Activity

City Distance Mag. Time & Date
Minimum magnitude displayed is 2.5.

Coastal Water Temperatures

Place Temperature

Stations

Nearby Weather Stations

Station Location Temp. Windchill Dew Point Humidity Wind Precip. Elev Updated Type
                   

Watches & Warnings

Areal Flood Watch
Issued: 3:04 AM EST Feb. 24, 2017 – National Weather Service

... Flood Watch remains in effect from this evening through Sunday
evening...

The Flood Watch continues for

* all of northern New York, and central and northern Vermont.

* From this evening through Sunday evening

* minor to locally moderate flooding is possible due to the
combination of snow melt and rainfall amounts between a half and
one inch. The flood threat will be highest on rivers and streams
where ice breakup occurs, primarily across northeast New York
and northern Vermont, especially north of U.S. Route 2. Note
that localized ice jam flooding could begin today, while the
bulk of any flooding is expected after moderate rainfall on
Saturday.

Precautionary/preparedness actions...

A Flood Watch means there is a potential for flooding based on
current forecasts.

You should monitor later forecasts and be alert for possible
flood warnings. Those living in areas prone to flooding should be
prepared to take action should flooding develop.



Banacos